createdAt,value
2023-04-08T00:01:22.687Z,3.27
2023-04-08T00:06:27.364Z,3.28
2023-04-08T00:11:32.848Z,3.23
2023-04-08T00:16:36.941Z,3.20
2023-04-08T00:21:40.864Z,3.10
2023-04-08T00:26:46.546Z,3.12
2023-04-08T00:31:51.495Z,3.11
2023-04-08T00:36:56.375Z,3.12
2023-04-08T00:42:02.179Z,3.11
2023-04-08T00:47:06.439Z,3.03
2023-04-08T00:52:11.195Z,2.98
2023-04-08T00:57:17.461Z,2.97
2023-04-08T01:02:28.246Z,2.97
2023-04-08T01:07:34.922Z,2.83
2023-04-08T01:12:44.042Z,2.85
2023-04-08T01:17:49.380Z,2.80
2023-04-08T01:23:04.038Z,2.61
2023-04-08T01:28:12.489Z,2.49
2023-04-08T01:33:17.996Z,2.43
2023-04-08T01:38:24.481Z,2.42
2023-04-08T01:43:32.427Z,2.43
2023-04-08T01:48:37.059Z,2.40
2023-04-08T01:53:41.277Z,2.46
2023-04-08T01:58:50.208Z,2.32
2023-04-08T02:03:57.824Z,2.31
2023-04-08T02:09:02.440Z,2.37
2023-04-08T02:14:07.750Z,2.40
2023-04-08T02:19:16.933Z,2.38
2023-04-08T02:24:21.817Z,2.46
2023-04-08T02:29:28.152Z,2.43
2023-04-08T02:34:32.858Z,2.47
2023-04-08T02:39:38.633Z,2.48
2023-04-08T02:44:44.086Z,2.65
2023-04-08T02:49:48.318Z,2.55
2023-04-08T02:54:52.296Z,2.58
2023-04-08T02:59:57.525Z,2.55
2023-04-08T03:05:01.658Z,2.65
2023-04-08T03:10:06.655Z,2.67
2023-04-08T03:15:12.810Z,2.62
2023-04-08T03:20:16.941Z,2.61
2023-04-08T03:25:20.912Z,2.60
2023-04-08T03:30:26.685Z,2.62
2023-04-08T03:35:31.213Z,2.58
2023-04-08T03:40:35.477Z,2.61
2023-04-08T03:45:40.939Z,2.53
2023-04-08T03:50:44.996Z,2.51
2023-04-08T03:55:50.558Z,2.61
2023-04-08T04:00:56.009Z,2.62
2023-04-08T04:05:59.880Z,2.56
2023-04-08T04:11:04.035Z,2.62
2023-04-08T04:16:09.588Z,2.64
2023-04-08T04:21:13.546Z,2.68
2023-04-08T04:26:17.880Z,2.70
2023-04-08T04:31:26.577Z,2.66
2023-04-08T04:36:31.703Z,2.70
2023-04-08T04:41:40.458Z,2.72
2023-04-08T04:46:46.002Z,2.68
2023-04-08T04:51:50.315Z,2.75
2023-04-08T04:56:54.527Z,2.73
2023-04-08T05:02:00.080Z,2.69
2023-04-08T05:07:04.057Z,2.69
2023-04-08T05:12:08.005Z,2.69
2023-04-08T05:17:13.707Z,2.73
2023-04-08T05:22:18.015Z,2.81
2023-04-08T05:27:21.896Z,2.83
2023-04-08T05:32:27.414Z,2.84
2023-04-08T05:37:31.465Z,2.99
2023-04-08T05:42:36.036Z,3.08
2023-04-08T05:47:41.566Z,3.11
2023-04-08T05:52:46.238Z,3.31
2023-04-08T05:57:50.425Z,3.31
2023-04-08T06:02:55.830Z,3.29
2023-04-08T06:07:59.918Z,3.34
2023-04-08T06:13:03.980Z,3.42
2023-04-08T06:18:09.644Z,3.30
2023-04-08T06:23:14.413Z,3.52
2023-04-08T06:28:18.816Z,3.68
2023-04-08T06:33:24.300Z,3.92
2023-04-08T06:38:28.561Z,4.02
2023-04-08T06:43:33.387Z,4.17
2023-04-08T06:48:39.213Z,4.38
2023-04-08T06:53:43.365Z,4.62
2023-04-08T06:58:47.346Z,4.76
2023-04-08T07:03:52.884Z,4.82
2023-04-08T07:08:57.333Z,4.77
2023-04-08T07:14:01.431Z,4.81
2023-04-08T07:19:06.835Z,5.14
2023-04-08T07:24:11.225Z,5.14
2023-04-08T07:29:15.279Z,5.33
2023-04-08T07:34:20.614Z,5.47
2023-04-08T07:39:24.536Z,5.50
2023-04-08T07:44:29.215Z,5.30
2023-04-08T07:49:34.851Z,5.10
2023-04-08T07:54:38.929Z,5.36
2023-04-08T07:59:42.883Z,5.54
2023-04-08T08:04:48.646Z,5.97
2023-04-08T08:09:52.801Z,5.85
2023-04-08T08:14:59.106Z,6.07
2023-04-08T08:20:05.722Z,5.98
2023-04-08T08:25:10.404Z,5.92
2023-04-08T08:30:14.837Z,6.38
2023-04-08T08:35:20.442Z,6.91
2023-04-08T08:40:24.453Z,6.87
2023-04-08T08:45:28.885Z,6.80
2023-04-08T08:50:34.397Z,7.20
2023-04-08T08:56:13.089Z,7.24
2023-04-08T09:01:03.582Z,7.51
2023-04-08T09:06:09.532Z,7.62
2023-04-08T09:11:15.962Z,7.38
2023-04-08T09:16:23.295Z,7.57
2023-04-08T09:21:28.697Z,7.26
2023-04-08T09:26:35.709Z,6.89
2023-04-08T09:31:41.925Z,7.58
2023-04-08T09:36:48.584Z,8.06
2023-04-08T09:41:53.458Z,7.75
2023-04-08T09:47:02.750Z,7.70
2023-04-08T09:52:09.516Z,8.07
2023-04-08T09:57:17.400Z,8.29
2023-04-08T10:02:30.760Z,8.75
2023-04-08T10:07:37.745Z,9.21
2023-04-08T10:12:42.408Z,8.90
2023-04-08T10:17:46.799Z,9.29
2023-04-08T10:22:52.666Z,9.96
2023-04-08T10:27:56.692Z,10.20
2023-04-08T10:33:01.533Z,10.07
2023-04-08T10:38:08.087Z,10.05
2023-04-08T10:43:13.671Z,10.15
2023-04-08T10:48:20.042Z,10.10
2023-04-08T10:53:30.342Z,10.04
2023-04-08T10:58:34.847Z,10.60
2023-04-08T11:03:39.193Z,10.18
2023-04-08T11:08:45.046Z,10.13
2023-04-08T11:13:53.502Z,10.67
2023-04-08T11:18:59.218Z,10.84
2023-04-08T11:24:07.909Z,10.22
2023-04-08T11:29:14.973Z,10.03
2023-04-08T11:34:24.694Z,9.61
2023-04-08T11:39:30.888Z,9.88
2023-04-08T11:44:35.355Z,9.95
2023-04-08T11:49:46.623Z,10.26
2023-04-08T11:54:52.108Z,9.54
2023-04-08T11:59:55.951Z,10.11
2023-04-08T12:04:59.835Z,10.08
2023-04-08T12:10:05.946Z,10.37
2023-04-08T12:15:11.168Z,10.46
2023-04-08T12:20:17.371Z,10.45
2023-04-08T12:25:22.928Z,10.30
2023-04-08T12:30:27.024Z,10.20
2023-04-08T12:35:31.178Z,10.32
2023-04-08T12:40:36.577Z,9.77
2023-04-08T12:45:40.833Z,9.96
2023-04-08T12:50:45.299Z,10.39
2023-04-08T12:55:51.473Z,10.06
2023-04-08T13:00:55.417Z,10.27
2023-04-08T13:05:59.994Z,10.64
2023-04-08T13:11:05.811Z,10.46
2023-04-08T13:16:09.955Z,10.54
2023-04-08T13:21:14.132Z,10.30
2023-04-08T13:26:19.652Z,10.41
2023-04-08T13:31:23.807Z,10.30
2023-04-08T13:36:28.682Z,10.40
2023-04-08T13:41:35.026Z,10.31
2023-04-08T13:46:39.635Z,10.28
2023-04-08T13:51:43.836Z,10.12
2023-04-08T13:56:50.031Z,10.12
2023-04-08T14:01:55.584Z,10.38
2023-04-08T14:06:59.505Z,10.29
2023-04-08T14:12:05.065Z,10.52
2023-04-08T14:17:09.221Z,10.60
2023-04-08T14:22:14.606Z,10.31
2023-04-08T14:27:20.117Z,10.04
2023-04-08T14:32:24.362Z,9.86
2023-04-08T14:37:28.465Z,9.84
2023-04-08T14:42:33.950Z,9.76
2023-04-08T14:47:40.785Z,9.63
2023-04-08T14:52:48.477Z,9.40
2023-04-08T14:57:53.693Z,9.30
2023-04-08T15:02:57.686Z,9.24
2023-04-08T15:08:02.526Z,9.00
2023-04-08T15:13:07.984Z,8.96
2023-04-08T15:18:12.151Z,8.72
2023-04-08T15:23:16.064Z,8.63
2023-04-08T15:28:21.420Z,8.51
2023-04-08T15:33:26.090Z,8.43
2023-04-08T15:38:30.425Z,8.44
2023-04-08T15:43:37.094Z,8.39
2023-04-08T15:48:42.730Z,8.17
2023-04-08T15:53:47.357Z,8.03
2023-04-08T15:58:53.558Z,8.14
2023-04-08T16:03:57.664Z,8.15
2023-04-08T16:09:02.570Z,8.14
2023-04-08T16:14:08.064Z,8.06
2023-04-08T16:19:12.428Z,8.02
2023-04-08T16:24:16.570Z,7.95
2023-04-08T16:29:22.778Z,7.85
2023-04-08T16:34:26.818Z,7.91
2023-04-08T16:39:31.126Z,7.88
2023-04-08T16:44:36.888Z,7.83
2023-04-08T16:49:40.932Z,7.75
2023-04-08T16:54:46.156Z,7.71
2023-04-08T16:59:51.565Z,7.71
2023-04-08T17:04:55.480Z,7.64
2023-04-08T17:09:59.644Z,7.58
2023-04-08T17:15:05.586Z,7.55
2023-04-08T17:20:10.530Z,7.45
2023-04-08T17:25:14.751Z,7.38
2023-04-08T17:30:20.285Z,7.35
2023-04-08T17:35:24.273Z,7.40
2023-04-08T17:40:28.534Z,7.37
2023-04-08T17:45:33.762Z,7.30
2023-04-08T17:50:38.176Z,7.24
2023-04-08T17:55:42.284Z,7.17
2023-04-08T18:00:48.867Z,7.09
2023-04-08T18:05:55.198Z,7.12
2023-04-08T18:10:59.128Z,7.14
2023-04-08T18:16:04.630Z,7.16
2023-04-08T18:21:09.309Z,7.15
2023-04-08T18:26:13.453Z,7.17
2023-04-08T18:31:19.246Z,7.16
2023-04-08T18:36:23.469Z,7.09
2023-04-08T18:41:28.007Z,6.94
2023-04-08T18:46:33.959Z,6.82
2023-04-08T18:51:39.568Z,6.78
2023-04-08T18:56:45.654Z,6.85
2023-04-08T19:01:51.164Z,6.87
2023-04-08T19:06:55.168Z,6.76
2023-04-08T19:11:59.302Z,6.68
2023-04-08T19:17:04.559Z,6.63
2023-04-08T19:22:08.456Z,6.63
2023-04-08T19:27:14.079Z,6.58
2023-04-08T19:32:20.076Z,6.63
2023-04-08T19:37:24.392Z,6.63
2023-04-08T19:42:28.336Z,6.59
2023-04-08T19:47:33.794Z,6.62
2023-04-08T19:52:38.017Z,6.62
2023-04-08T19:57:42.369Z,6.65
2023-04-08T20:02:48.055Z,6.63
2023-04-08T20:07:52.164Z,6.47
2023-04-08T20:12:56.415Z,6.42
2023-04-08T20:18:01.715Z,6.51
2023-04-08T20:23:05.930Z,6.41
2023-04-08T20:28:09.970Z,6.54
2023-04-08T20:33:15.427Z,6.55
2023-04-08T20:38:19.675Z,6.59
2023-04-08T20:43:23.806Z,6.62
2023-04-08T20:48:29.685Z,6.55
2023-04-08T20:53:34.512Z,6.45
2023-04-08T20:58:39.003Z,6.44
2023-04-08T21:03:44.505Z,6.32
2023-04-08T21:08:49.153Z,6.32
2023-04-08T21:13:53.251Z,6.28
2023-04-08T21:19:01.365Z,6.24
2023-04-08T21:24:07.082Z,6.22
2023-04-08T21:29:12.189Z,6.08
2023-04-08T21:34:17.660Z,6.14
2023-04-08T21:39:22.538Z,6.09
2023-04-08T21:44:26.792Z,6.11
2023-04-08T21:49:32.301Z,6.17
2023-04-08T21:54:36.233Z,6.12
2023-04-08T21:59:40.893Z,6.06
2023-04-08T22:04:46.437Z,6.01
2023-04-08T22:09:50.541Z,6.00
2023-04-08T22:14:55.048Z,6.14
2023-04-08T22:20:00.493Z,6.25
2023-04-08T22:25:04.770Z,6.31
2023-04-08T22:30:09.835Z,6.35
2023-04-08T22:35:15.409Z,6.34
2023-04-08T22:40:19.548Z,6.41
2023-04-08T22:45:23.742Z,6.43
2023-04-08T22:50:29.236Z,6.43
2023-04-08T22:55:33.239Z,6.45
2023-04-08T23:00:37.273Z,6.32
2023-04-08T23:05:42.608Z,6.32
2023-04-08T23:10:46.731Z,6.37
2023-04-08T23:15:50.861Z,6.17
2023-04-08T23:20:57.187Z,6.03
2023-04-08T23:26:01.213Z,6.07
2023-04-08T23:31:05.807Z,6.12
2023-04-08T23:36:11.822Z,6.18
2023-04-08T23:41:15.965Z,6.13
2023-04-08T23:46:20.473Z,6.11
2023-04-08T23:51:26.163Z,6.14
2023-04-08T23:56:30.283Z,6.19
